sensor_id;sensor_type;location;lat;lon;timestamp;temperature;humidity
19952;DHT22;10137;49.406;19.484;2023-02-08T00:00:38;-4.20;99.90
19952;DHT22;10137;49.406;19.484;2023-02-08T00:03:06;-4.20;99.90
19952;DHT22;10137;49.406;19.484;2023-02-08T00:05:33;-4.20;99.90
19952;DHT22;10137;49.406;19.484;2023-02-08T00:08:01;-4.20;99.90
19952;DHT22;10137;49.406;19.484;2023-02-08T00:10:28;-4.20;99.90
19952;DHT22;10137;49.406;19.484;2023-02-08T00:12:55;-4.30;99.90
19952;DHT22;10137;49.406;19.484;2023-02-08T00:15:24;-4.30;99.90
19952;DHT22;10137;49.406;19.484;2023-02-08T00:17:53;-4.20;99.90
19952;DHT22;10137;49.406;19.484;2023-02-08T00:20:22;-4.30;99.90
19952;DHT22;10137;49.406;19.484;2023-02-08T00:22:49;-4.30;99.90
19952;DHT22;10137;49.406;19.484;2023-02-08T00:25:16;-4.30;99.90
19952;DHT22;10137;49.406;19.484;2023-02-08T00:27:43;-4.20;99.90
19952;DHT22;10137;49.406;19.484;2023-02-08T00:30:11;-4.20;99.90
19952;DHT22;10137;49.406;19.484;2023-02-08T00:32:38;-4.20;99.90
19952;DHT22;10137;49.406;19.484;2023-02-08T00:35:05;-4.20;99.90
19952;DHT22;10137;49.406;19.484;2023-02-08T00:37:36;-4.20;99.90
19952;DHT22;10137;49.406;19.484;2023-02-08T00:40:05;-4.20;99.90
19952;DHT22;10137;49.406;19.484;2023-02-08T00:42:32;-4.20;99.90
19952;DHT22;10137;49.406;19.484;2023-02-08T00:44:59;-4.10;99.90
19952;DHT22;10137;49.406;19.484;2023-02-08T00:47:26;-4.20;99.90
19952;DHT22;10137;49.406;19.484;2023-02-08T00:49:53;-4.20;99.90
19952;DHT22;10137;49.406;19.484;2023-02-08T00:52:22;-4.30;99.90
19952;DHT22;10137;49.406;19.484;2023-02-08T00:54:50;-4.30;99.90
19952;DHT22;10137;49.406;19.484;2023-02-08T00:57:17;-4.30;99.90
19952;DHT22;10137;49.406;19.484;2023-02-08T00:59:44;-4.20;99.90
19952;DHT22;10137;49.406;19.484;2023-02-08T01:02:11;-4.20;99.90
19952;DHT22;10137;49.406;19.484;2023-02-08T01:04:39;-4.20;99.90
19952;DHT22;10137;49.406;19.484;2023-02-08T01:07:06;-4.30;99.90
19952;DHT22;10137;49.406;19.484;2023-02-08T01:09:33;-4.30;99.90
19952;DHT22;10137;49.406;19.484;2023-02-08T01:12:02;-4.30;99.90
19952;DHT22;10137;49.406;19.484;2023-02-08T01:14:29;-4.20;99.90
19952;DHT22;10137;49.406;19.484;2023-02-08T01:16:56;-4.20;99.90
19952;DHT22;10137;49.406;19.484;2023-02-08T01:19:23;-4.10;99.90
19952;DHT22;10137;49.406;19.484;2023-02-08T01:21:50;-4.20;99.90
19952;DHT22;10137;49.406;19.484;2023-02-08T01:24:21;-4.20;99.90
19952;DHT22;10137;49.406;19.484;2023-02-08T01:26:48;-4.20;99.90
19952;DHT22;10137;49.406;19.484;2023-02-08T01:29:17;-4.10;99.90
19952;DHT22;10137;49.406;19.484;2023-02-08T01:31:44;-4.20;99.90
19952;DHT22;10137;49.406;19.484;2023-02-08T01:34:12;-4.10;99.90
19952;DHT22;10137;49.406;19.484;2023-02-08T01:36:39;-4.10;99.90
19952;DHT22;10137;49.406;19.484;2023-02-08T01:39:07;-4.10;99.90
19952;DHT22;10137;49.406;19.484;2023-02-08T01:41:36;-4.10;99.90
19952;DHT22;10137;49.406;19.484;2023-02-08T01:46:51;-4.10;99.90
19952;DHT22;10137;49.406;19.484;2023-02-08T01:49:21;-4.10;99.90
19952;DHT22;10137;49.406;19.484;2023-02-08T01:51:55;-4.10;99.90
19952;DHT22;10137;49.406;19.484;2023-02-08T01:54:30;-4.10;99.90
19952;DHT22;10137;49.406;19.484;2023-02-08T01:56:59;-4.10;99.90
19952;DHT22;10137;49.406;19.484;2023-02-08T01:59:30;-4.00;99.90
19952;DHT22;10137;49.406;19.484;2023-02-08T02:02:00;-4.00;99.90
19952;DHT22;10137;49.406;19.484;2023-02-08T02:04:29;-4.00;99.90
19952;DHT22;10137;49.406;19.484;2023-02-08T02:06:57;-4.00;99.90
19952;DHT22;10137;49.406;19.484;2023-02-08T02:09:29;-4.00;99.90
19952;DHT22;10137;49.406;19.484;2023-02-08T02:11:58;-4.00;99.90
19952;DHT22;10137;49.406;19.484;2023-02-08T02:14:25;-4.00;99.90
19952;DHT22;10137;49.406;19.484;2023-02-08T02:16:52;-4.00;99.90
19952;DHT22;10137;49.406;19.484;2023-02-08T02:19:32;-4.00;99.90
19952;DHT22;10137;49.406;19.484;2023-02-08T02:22:19;-4.00;99.90
19952;DHT22;10137;49.406;19.484;2023-02-08T02:28:06;-3.90;99.90
19952;DHT22;10137;49.406;19.484;2023-02-08T02:30:56;-3.90;99.90
19952;DHT22;10137;49.406;19.484;2023-02-08T02:33:54;-4.00;99.90
19952;DHT22;10137;49.406;19.484;2023-02-08T02:36:32;-3.90;99.90
19952;DHT22;10137;49.406;19.484;2023-02-08T02:39:12;-4.00;99.90
19952;DHT22;10137;49.406;19.484;2023-02-08T02:41:47;-4.00;99.90
19952;DHT22;10137;49.406;19.484;2023-02-08T02:44:40;-4.00;99.90
19952;DHT22;10137;49.406;19.484;2023-02-08T02:47:14;-4.00;99.90
19952;DHT22;10137;49.406;19.484;2023-02-08T02:49:49;-4.00;99.90
19952;DHT22;10137;49.406;19.484;2023-02-08T02:52:22;-4.00;99.90
19952;DHT22;10137;49.406;19.484;2023-02-08T02:54:52;-4.00;99.90
19952;DHT22;10137;49.406;19.484;2023-02-08T02:57:24;-4.00;99.90
19952;DHT22;10137;49.406;19.484;2023-02-08T02:59:52;-4.00;99.90
19952;DHT22;10137;49.406;19.484;2023-02-08T03:02:20;-4.00;99.90
19952;DHT22;10137;49.406;19.484;2023-02-08T03:04:54;-4.10;99.90
19952;DHT22;10137;49.406;19.484;2023-02-08T03:07:42;-4.10;99.90
19952;DHT22;10137;49.406;19.484;2023-02-08T03:10:24;-4.00;99.90
19952;DHT22;10137;49.406;19.484;2023-02-08T03:13:02;-4.10;99.90
19952;DHT22;10137;49.406;19.484;2023-02-08T03:15:39;-4.10;99.90
19952;DHT22;10137;49.406;19.484;2023-02-08T03:18:17;-4.10;99.90
19952;DHT22;10137;49.406;19.484;2023-02-08T03:20:55;-4.10;99.90
19952;DHT22;10137;49.406;19.484;2023-02-08T03:23:28;-4.10;99.90
19952;DHT22;10137;49.406;19.484;2023-02-08T03:26:01;-4.10;99.90
19952;DHT22;10137;49.406;19.484;2023-02-08T03:28:36;-4.10;99.90
19952;DHT22;10137;49.406;19.484;2023-02-08T03:31:10;-4.10;99.90
19952;DHT22;10137;49.406;19.484;2023-02-08T03:33:42;-4.10;99.90
19952;DHT22;10137;49.406;19.484;2023-02-08T03:36:20;-4.10;99.90
19952;DHT22;10137;49.406;19.484;2023-02-08T03:38:54;-4.10;99.90
19952;DHT22;10137;49.406;19.484;2023-02-08T03:41:25;-4.10;99.90
19952;DHT22;10137;49.406;19.484;2023-02-08T03:43:56;-4.00;99.90
19952;DHT22;10137;49.406;19.484;2023-02-08T03:46:31;-4.00;99.90
19952;DHT22;10137;49.406;19.484;2023-02-08T03:49:02;-4.10;99.90
19952;DHT22;10137;49.406;19.484;2023-02-08T03:51:32;-4.10;99.90
19952;DHT22;10137;49.406;19.484;2023-02-08T03:54:05;-4.20;99.90
19952;DHT22;10137;49.406;19.484;2023-02-08T03:56:45;-4.10;99.90
19952;DHT22;10137;49.406;19.484;2023-02-08T03:59:19;-4.10;99.90
19952;DHT22;10137;49.406;19.484;2023-02-08T04:01:49;-4.20;99.90
19952;DHT22;10137;49.406;19.484;2023-02-08T04:04:20;-4.20;99.90
19952;DHT22;10137;49.406;19.484;2023-02-08T04:06:48;-4.10;99.90
19952;DHT22;10137;49.406;19.484;2023-02-08T04:09:15;-4.20;99.90
19952;DHT22;10137;49.406;19.484;2023-02-08T04:11:42;-4.20;99.90
19952;DHT22;10137;49.406;19.484;2023-02-08T04:14:09;-4.10;99.90
19952;DHT22;10137;49.406;19.484;2023-02-08T04:16:37;-4.10;99.90
19952;DHT22;10137;49.406;19.484;2023-02-08T04:19:04;-4.10;99.90
19952;DHT22;10137;49.406;19.484;2023-02-08T04:21:33;-4.10;99.90
19952;DHT22;10137;49.406;19.484;2023-02-08T04:24:02;-4.10;99.90
19952;DHT22;10137;49.406;19.484;2023-02-08T04:26:29;-4.10;99.90
19952;DHT22;10137;49.406;19.484;2023-02-08T04:28:56;-4.10;99.90
19952;DHT22;10137;49.406;19.484;2023-02-08T04:31:26;-4.10;99.90
19952;DHT22;10137;49.406;19.484;2023-02-08T04:33:53;-4.10;99.90
19952;DHT22;10137;49.406;19.484;2023-02-08T04:36:21;-4.10;99.90
19952;DHT22;10137;49.406;19.484;2023-02-08T04:38:49;-4.10;99.90
19952;DHT22;10137;49.406;19.484;2023-02-08T04:41:18;-4.00;99.90
19952;DHT22;10137;49.406;19.484;2023-02-08T04:43:45;-4.00;99.90
19952;DHT22;10137;49.406;19.484;2023-02-08T04:46:12;-4.10;99.90
19952;DHT22;10137;49.406;19.484;2023-02-08T04:48:39;-4.00;99.90
19952;DHT22;10137;49.406;19.484;2023-02-08T04:51:06;-4.00;99.90
19952;DHT22;10137;49.406;19.484;2023-02-08T04:53:33;-4.00;99.90
19952;DHT22;10137;49.406;19.484;2023-02-08T04:56:00;-4.00;99.90
19952;DHT22;10137;49.406;19.484;2023-02-08T04:58:29;-4.00;99.90
19952;DHT22;10137;49.406;19.484;2023-02-08T05:00:56;-4.00;99.90
19952;DHT22;10137;49.406;19.484;2023-02-08T05:03:23;-4.00;99.90
19952;DHT22;10137;49.406;19.484;2023-02-08T05:05:56;-4.00;99.90
19952;DHT22;10137;49.406;19.484;2023-02-08T05:08:25;-4.00;99.90
19952;DHT22;10137;49.406;19.484;2023-02-08T05:10:52;-3.90;99.90
19952;DHT22;10137;49.406;19.484;2023-02-08T05:13:23;-3.90;99.90
19952;DHT22;10137;49.406;19.484;2023-02-08T05:15:52;-3.90;99.90
19952;DHT22;10137;49.406;19.484;2023-02-08T05:18:19;-3.90;99.90
19952;DHT22;10137;49.406;19.484;2023-02-08T05:20:53;-3.80;99.90
19952;DHT22;10137;49.406;19.484;2023-02-08T05:23:20;-3.80;99.90
19952;DHT22;10137;49.406;19.484;2023-02-08T05:25:47;-3.80;99.90
19952;DHT22;10137;49.406;19.484;2023-02-08T05:28:15;-3.80;99.90
19952;DHT22;10137;49.406;19.484;2023-02-08T05:30:42;-3.80;99.90
19952;DHT22;10137;49.406;19.484;2023-02-08T05:33:11;-3.80;99.90
19952;DHT22;10137;49.406;19.484;2023-02-08T05:35:38;-3.80;99.90
19952;DHT22;10137;49.406;19.484;2023-02-08T05:38:05;-3.80;99.90
19952;DHT22;10137;49.406;19.484;2023-02-08T05:40:34;-3.80;99.90
19952;DHT22;10137;49.406;19.484;2023-02-08T05:43:01;-3.90;99.90
19952;DHT22;10137;49.406;19.484;2023-02-08T05:45:29;-3.80;99.90
19952;DHT22;10137;49.406;19.484;2023-02-08T05:47:56;-3.80;99.90
19952;DHT22;10137;49.406;19.484;2023-02-08T05:50:24;-3.90;99.90
19952;DHT22;10137;49.406;19.484;2023-02-08T05:52:52;-3.90;99.90
19952;DHT22;10137;49.406;19.484;2023-02-08T05:55:19;-3.90;99.90
19952;DHT22;10137;49.406;19.484;2023-02-08T05:57:46;-3.90;99.90
19952;DHT22;10137;49.406;19.484;2023-02-08T06:00:14;-3.90;99.90
19952;DHT22;10137;49.406;19.484;2023-02-08T06:02:41;-3.90;99.90
19952;DHT22;10137;49.406;19.484;2023-02-08T06:05:08;-4.00;99.90
19952;DHT22;10137;49.406;19.484;2023-02-08T06:07:37;-4.00;99.90
19952;DHT22;10137;49.406;19.484;2023-02-08T06:10:05;-4.00;99.90
19952;DHT22;10137;49.406;19.484;2023-02-08T06:12:33;-3.90;99.90
19952;DHT22;10137;49.406;19.484;2023-02-08T06:15:01;-4.00;99.90
19952;DHT22;10137;49.406;19.484;2023-02-08T06:17:30;-4.00;99.90
19952;DHT22;10137;49.406;19.484;2023-02-08T06:19:57;-4.00;99.90
19952;DHT22;10137;49.406;19.484;2023-02-08T06:22:24;-3.90;99.90
19952;DHT22;10137;49.406;19.484;2023-02-08T06:24:56;-3.90;99.90
19952;DHT22;10137;49.406;19.484;2023-02-08T06:27:24;-3.90;99.90
19952;DHT22;10137;49.406;19.484;2023-02-08T06:29:51;-3.90;99.90
19952;DHT22;10137;49.406;19.484;2023-02-08T06:32:18;-3.90;99.90
19952;DHT22;10137;49.406;19.484;2023-02-08T06:34:45;-3.90;99.90
19952;DHT22;10137;49.406;19.484;2023-02-08T06:37:15;-3.80;99.90
19952;DHT22;10137;49.406;19.484;2023-02-08T06:39:44;-3.80;99.90
19952;DHT22;10137;49.406;19.484;2023-02-08T06:42:17;-3.80;99.90
19952;DHT22;10137;49.406;19.484;2023-02-08T06:44:48;-3.80;99.90
19952;DHT22;10137;49.406;19.484;2023-02-08T06:47:15;-3.70;99.90
19952;DHT22;10137;49.406;19.484;2023-02-08T06:49:42;-3.80;99.90
19952;DHT22;10137;49.406;19.484;2023-02-08T06:52:09;-3.80;99.90
19952;DHT22;10137;49.406;19.484;2023-02-08T06:54:36;-3.70;99.90
19952;DHT22;10137;49.406;19.484;2023-02-08T06:57:03;-3.80;99.90
19952;DHT22;10137;49.406;19.484;2023-02-08T06:59:34;-3.70;99.90
19952;DHT22;10137;49.406;19.484;2023-02-08T07:02:01;-3.70;99.90
19952;DHT22;10137;49.406;19.484;2023-02-08T07:04:28;-3.70;99.90
19952;DHT22;10137;49.406;19.484;2023-02-08T07:06:55;-3.60;99.90
19952;DHT22;10137;49.406;19.484;2023-02-08T07:09:22;-3.60;99.90
19952;DHT22;10137;49.406;19.484;2023-02-08T07:11:49;-3.60;99.90
19952;DHT22;10137;49.406;19.484;2023-02-08T07:14:16;-3.60;99.90
19952;DHT22;10137;49.406;19.484;2023-02-08T07:16:47;-3.60;99.90
19952;DHT22;10137;49.406;19.484;2023-02-08T07:19:17;-3.60;99.90
19952;DHT22;10137;49.406;19.484;2023-02-08T07:21:45;-3.50;99.90
19952;DHT22;10137;49.406;19.484;2023-02-08T07:24:12;-3.50;99.90
19952;DHT22;10137;49.406;19.484;2023-02-08T07:26:39;-3.50;99.90
19952;DHT22;10137;49.406;19.484;2023-02-08T07:29:09;-3.50;99.90
19952;DHT22;10137;49.406;19.484;2023-02-08T07:31:36;-3.50;99.90
19952;DHT22;10137;49.406;19.484;2023-02-08T07:34:04;-3.40;99.90
19952;DHT22;10137;49.406;19.484;2023-02-08T07:36:31;-3.50;99.90
19952;DHT22;10137;49.406;19.484;2023-02-08T07:39:00;-3.40;99.90
19952;DHT22;10137;49.406;19.484;2023-02-08T07:41:27;-3.50;99.90
19952;DHT22;10137;49.406;19.484;2023-02-08T07:43:58;-3.40;99.90
19952;DHT22;10137;49.406;19.484;2023-02-08T07:46:25;-3.40;99.90
19952;DHT22;10137;49.406;19.484;2023-02-08T07:48:52;-3.40;99.90
19952;DHT22;10137;49.406;19.484;2023-02-08T07:51:20;-3.40;99.90
19952;DHT22;10137;49.406;19.484;2023-02-08T07:53:53;-3.40;99.90
19952;DHT22;10137;49.406;19.484;2023-02-08T07:56:21;-3.40;99.90
19952;DHT22;10137;49.406;19.484;2023-02-08T07:58:48;-3.40;99.90
19952;DHT22;10137;49.406;19.484;2023-02-08T08:01:15;-3.40;99.90
19952;DHT22;10137;49.406;19.484;2023-02-08T08:03:42;-3.40;99.90
19952;DHT22;10137;49.406;19.484;2023-02-08T08:06:09;-3.40;99.90
19952;DHT22;10137;49.406;19.484;2023-02-08T08:08:38;-3.40;99.90
19952;DHT22;10137;49.406;19.484;2023-02-08T08:11:05;-3.30;99.90
19952;DHT22;10137;49.406;19.484;2023-02-08T08:13:35;-3.30;99.90
19952;DHT22;10137;49.406;19.484;2023-02-08T08:16:02;-3.30;99.90
19952;DHT22;10137;49.406;19.484;2023-02-08T08:18:29;-3.20;99.90
19952;DHT22;10137;49.406;19.484;2023-02-08T08:20:56;-3.20;99.90
19952;DHT22;10137;49.406;19.484;2023-02-08T08:23:23;-3.20;99.90
19952;DHT22;10137;49.406;19.484;2023-02-08T08:25:52;-3.20;99.90
19952;DHT22;10137;49.406;19.484;2023-02-08T08:28:20;-3.20;99.90
19952;DHT22;10137;49.406;19.484;2023-02-08T08:30:49;-3.20;99.90
19952;DHT22;10137;49.406;19.484;2023-02-08T08:33:16;-3.20;99.90
19952;DHT22;10137;49.406;19.484;2023-02-08T08:35:43;-3.10;99.90
19952;DHT22;10137;49.406;19.484;2023-02-08T08:38:11;-3.10;99.90
19952;DHT22;10137;49.406;19.484;2023-02-08T08:40:40;-3.10;99.90
19952;DHT22;10137;49.406;19.484;2023-02-08T08:43:08;-3.00;99.90
19952;DHT22;10137;49.406;19.484;2023-02-08T08:45:35;-3.00;99.90
19952;DHT22;10137;49.406;19.484;2023-02-08T08:48:05;-2.90;99.90
19952;DHT22;10137;49.406;19.484;2023-02-08T08:50:33;-2.90;99.90
19952;DHT22;10137;49.406;19.484;2023-02-08T08:53:02;-2.90;99.90
19952;DHT22;10137;49.406;19.484;2023-02-08T08:55:34;-2.80;99.90
19952;DHT22;10137;49.406;19.484;2023-02-08T08:58:02;-2.80;99.90
19952;DHT22;10137;49.406;19.484;2023-02-08T09:00:31;-2.70;99.90
19952;DHT22;10137;49.406;19.484;2023-02-08T09:02:58;-2.60;99.90
19952;DHT22;10137;49.406;19.484;2023-02-08T09:05:25;-2.60;99.90
19952;DHT22;10137;49.406;19.484;2023-02-08T09:07:55;-2.60;99.90
19952;DHT22;10137;49.406;19.484;2023-02-08T09:10:23;-2.60;99.90
19952;DHT22;10137;49.406;19.484;2023-02-08T09:12:50;-2.50;99.90
19952;DHT22;10137;49.406;19.484;2023-02-08T09:15:18;-2.50;99.90
19952;DHT22;10137;49.406;19.484;2023-02-08T09:17:46;-2.50;99.90
19952;DHT22;10137;49.406;19.484;2023-02-08T09:20:13;-2.40;99.90
19952;DHT22;10137;49.406;19.484;2023-02-08T09:22:40;-2.40;99.90
19952;DHT22;10137;49.406;19.484;2023-02-08T09:25:08;-2.40;99.90
19952;DHT22;10137;49.406;19.484;2023-02-08T09:27:35;-2.40;99.90
19952;DHT22;10137;49.406;19.484;2023-02-08T09:30:02;-2.30;99.90
19952;DHT22;10137;49.406;19.484;2023-02-08T09:32:30;-2.30;99.90
19952;DHT22;10137;49.406;19.484;2023-02-08T09:35:01;-2.20;99.90
19952;DHT22;10137;49.406;19.484;2023-02-08T09:37:28;-2.20;99.90
19952;DHT22;10137;49.406;19.484;2023-02-08T09:39:55;-2.20;99.90
19952;DHT22;10137;49.406;19.484;2023-02-08T09:42:38;-2.10;99.90
19952;DHT22;10137;49.406;19.484;2023-02-08T09:45:43;-2.10;99.90
19952;DHT22;10137;49.406;19.484;2023-02-08T09:48:17;-2.10;99.90
19952;DHT22;10137;49.406;19.484;2023-02-08T09:50:51;-2.10;99.90
19952;DHT22;10137;49.406;19.484;2023-02-08T09:53:21;-2.10;99.90
19952;DHT22;10137;49.406;19.484;2023-02-08T09:55:54;-1.70;99.90
19952;DHT22;10137;49.406;19.484;2023-02-08T09:58:26;-1.20;99.90
19952;DHT22;10137;49.406;19.484;2023-02-08T10:00:54;-1.00;99.90
19952;DHT22;10137;49.406;19.484;2023-02-08T10:03:29;-0.80;99.90
19952;DHT22;10137;49.406;19.484;2023-02-08T10:05:59;-0.80;99.90
19952;DHT22;10137;49.406;19.484;2023-02-08T10:08:28;-0.70;99.90
19952;DHT22;10137;49.406;19.484;2023-02-08T10:11:07;-0.60;99.90
19952;DHT22;10137;49.406;19.484;2023-02-08T10:13:50;-0.50;99.90
19952;DHT22;10137;49.406;19.484;2023-02-08T10:16:36;-0.50;99.90
19952;DHT22;10137;49.406;19.484;2023-02-08T10:19:13;-0.60;99.90
19952;DHT22;10137;49.406;19.484;2023-02-08T10:21:54;-0.70;99.90
19952;DHT22;10137;49.406;19.484;2023-02-08T10:24:42;-0.60;99.90
19952;DHT22;10137;49.406;19.484;2023-02-08T10:27:14;-0.60;99.90
19952;DHT22;10137;49.406;19.484;2023-02-08T10:30:09;-0.70;99.90
19952;DHT22;10137;49.406;19.484;2023-02-08T10:32:47;-0.80;99.90
19952;DHT22;10137;49.406;19.484;2023-02-08T10:35:24;-0.90;99.90
19952;DHT22;10137;49.406;19.484;2023-02-08T10:37:55;-1.00;99.90
19952;DHT22;10137;49.406;19.484;2023-02-08T10:40:30;-0.90;99.90
19952;DHT22;10137;49.406;19.484;2023-02-08T10:43:04;-0.90;99.90
19952;DHT22;10137;49.406;19.484;2023-02-08T10:45:44;-0.90;99.90
19952;DHT22;10137;49.406;19.484;2023-02-08T10:48:20;-1.10;99.90
19952;DHT22;10137;49.406;19.484;2023-02-08T10:50:53;-1.20;99.90
19952;DHT22;10137;49.406;19.484;2023-02-08T10:53:21;-1.30;99.90
19952;DHT22;10137;49.406;19.484;2023-02-08T10:55:48;-1.30;99.90
19952;DHT22;10137;49.406;19.484;2023-02-08T10:58:18;-1.40;99.90
19952;DHT22;10137;49.406;19.484;2023-02-08T11:00:47;-1.40;99.90
19952;DHT22;10137;49.406;19.484;2023-02-08T11:03:19;-1.20;99.90
19952;DHT22;10137;49.406;19.484;2023-02-08T11:05:47;-1.30;99.90
19952;DHT22;10137;49.406;19.484;2023-02-08T11:08:17;-1.20;99.90
19952;DHT22;10137;49.406;19.484;2023-02-08T11:10:55;-1.00;99.90
19952;DHT22;10137;49.406;19.484;2023-02-08T11:13:25;-1.00;99.90
19952;DHT22;10137;49.406;19.484;2023-02-08T11:15:55;-1.00;99.90
19952;DHT22;10137;49.406;19.484;2023-02-08T11:18:27;-1.00;99.90
19952;DHT22;10137;49.406;19.484;2023-02-08T11:20:59;-1.00;99.90
19952;DHT22;10137;49.406;19.484;2023-02-08T11:23:29;-0.80;99.90
19952;DHT22;10137;49.406;19.484;2023-02-08T11:26:14;-0.70;99.90
19952;DHT22;10137;49.406;19.484;2023-02-08T11:28:42;-0.70;99.90
19952;DHT22;10137;49.406;19.484;2023-02-08T11:31:16;-0.80;99.90
19952;DHT22;10137;49.406;19.484;2023-02-08T11:34:00;-0.80;99.90
19952;DHT22;10137;49.406;19.484;2023-02-08T11:36:29;-0.80;99.90
19952;DHT22;10137;49.406;19.484;2023-02-08T11:38:57;-0.80;99.90
19952;DHT22;10137;49.406;19.484;2023-02-08T11:41:28;-0.90;99.90
19952;DHT22;10137;49.406;19.484;2023-02-08T11:43:59;-1.00;99.90
19952;DHT22;10137;49.406;19.484;2023-02-08T11:46:31;-1.00;99.90
19952;DHT22;10137;49.406;19.484;2023-02-08T11:48:59;-1.00;99.90
19952;DHT22;10137;49.406;19.484;2023-02-08T11:51:29;-1.00;99.90
19952;DHT22;10137;49.406;19.484;2023-02-08T11:53:59;-1.10;99.90
19952;DHT22;10137;49.406;19.484;2023-02-08T11:56:30;-1.10;99.90
19952;DHT22;10137;49.406;19.484;2023-02-08T11:59:03;-1.10;99.90
19952;DHT22;10137;49.406;19.484;2023-02-08T12:01:36;-1.10;99.90
19952;DHT22;10137;49.406;19.484;2023-02-08T12:04:05;-1.20;99.90
19952;DHT22;10137;49.406;19.484;2023-02-08T12:06:50;-1.10;99.90
19952;DHT22;10137;49.406;19.484;2023-02-08T12:09:36;-1.20;99.90
19952;DHT22;10137;49.406;19.484;2023-02-08T12:12:16;-1.20;99.90
19952;DHT22;10137;49.406;19.484;2023-02-08T12:14:58;-1.10;99.90
19952;DHT22;10137;49.406;19.484;2023-02-08T12:18:00;-0.70;99.90
19952;DHT22;10137;49.406;19.484;2023-02-08T12:20:37;-0.30;99.90
19952;DHT22;10137;49.406;19.484;2023-02-08T12:23:27;-0.10;99.90
19952;DHT22;10137;49.406;19.484;2023-02-08T12:26:07;0.10;99.90
19952;DHT22;10137;49.406;19.484;2023-02-08T12:28:47;0.30;99.90
19952;DHT22;10137;49.406;19.484;2023-02-08T12:31:24;0.50;99.90
19952;DHT22;10137;49.406;19.484;2023-02-08T12:34:01;0.60;99.90
19952;DHT22;10137;49.406;19.484;2023-02-08T12:36:49;0.70;99.90
19952;DHT22;10137;49.406;19.484;2023-02-08T12:39:50;0.80;99.90
19952;DHT22;10137;49.406;19.484;2023-02-08T12:42:50;0.90;99.90
19952;DHT22;10137;49.406;19.484;2023-02-08T12:45:38;1.00;99.90
19952;DHT22;10137;49.406;19.484;2023-02-08T12:48:17;1.00;99.90
19952;DHT22;10137;49.406;19.484;2023-02-08T12:50:52;1.00;99.90
19952;DHT22;10137;49.406;19.484;2023-02-08T12:53:26;0.90;99.90
19952;DHT22;10137;49.406;19.484;2023-02-08T12:55:59;0.80;99.90
19952;DHT22;10137;49.406;19.484;2023-02-08T12:58:29;0.70;99.90
19952;DHT22;10137;49.406;19.484;2023-02-08T13:01:01;0.70;99.90
19952;DHT22;10137;49.406;19.484;2023-02-08T13:03:39;0.70;99.90
19952;DHT22;10137;49.406;19.484;2023-02-08T13:06:14;0.60;99.90
19952;DHT22;10137;49.406;19.484;2023-02-08T13:08:47;0.40;99.90
19952;DHT22;10137;49.406;19.484;2023-02-08T13:11:18;0.30;99.90
19952;DHT22;10137;49.406;19.484;2023-02-08T13:13:56;0.10;99.90
19952;DHT22;10137;49.406;19.484;2023-02-08T13:16:29;0.10;99.90
19952;DHT22;10137;49.406;19.484;2023-02-08T13:19:06;0.00;99.90
19952;DHT22;10137;49.406;19.484;2023-02-08T13:21:39;-0.10;99.90
19952;DHT22;10137;49.406;19.484;2023-02-08T13:24:16;-0.10;99.90
19952;DHT22;10137;49.406;19.484;2023-02-08T13:26:45;-0.10;99.90
19952;DHT22;10137;49.406;19.484;2023-02-08T13:29:17;-0.20;99.90
19952;DHT22;10137;49.406;19.484;2023-02-08T13:31:48;-0.20;99.90
19952;DHT22;10137;49.406;19.484;2023-02-08T13:34:24;-0.20;99.90
19952;DHT22;10137;49.406;19.484;2023-02-08T13:36:56;-0.30;99.90
19952;DHT22;10137;49.406;19.484;2023-02-08T13:39:36;-0.30;99.90
19952;DHT22;10137;49.406;19.484;2023-02-08T13:42:06;-0.30;99.90
19952;DHT22;10137;49.406;19.484;2023-02-08T13:44:36;-0.40;99.90
19952;DHT22;10137;49.406;19.484;2023-02-08T13:47:05;-0.50;99.90
19952;DHT22;10137;49.406;19.484;2023-02-08T13:49:52;-0.50;99.90
19952;DHT22;10137;49.406;19.484;2023-02-08T13:52:45;-0.50;99.90
19952;DHT22;10137;49.406;19.484;2023-02-08T13:55:38;-0.70;99.90
19952;DHT22;10137;49.406;19.484;2023-02-08T13:58:35;-0.70;99.90
19952;DHT22;10137;49.406;19.484;2023-02-08T14:01:18;-0.70;99.90
19952;DHT22;10137;49.406;19.484;2023-02-08T14:06:58;-0.80;99.90
19952;DHT22;10137;49.406;19.484;2023-02-08T14:09:40;-0.80;99.90
19952;DHT22;10137;49.406;19.484;2023-02-08T14:12:15;-0.90;99.90
19952;DHT22;10137;49.406;19.484;2023-02-08T14:15:04;-1.00;99.90
19952;DHT22;10137;49.406;19.484;2023-02-08T14:17:32;-1.00;99.90
19952;DHT22;10137;49.406;19.484;2023-02-08T14:20:04;-1.00;99.90
19952;DHT22;10137;49.406;19.484;2023-02-08T14:22:36;-1.10;99.90
19952;DHT22;10137;49.406;19.484;2023-02-08T14:25:06;-1.10;99.90
19952;DHT22;10137;49.406;19.484;2023-02-08T14:27:38;-1.10;99.90
19952;DHT22;10137;49.406;19.484;2023-02-08T14:30:24;-1.20;99.90
19952;DHT22;10137;49.406;19.484;2023-02-08T14:33:06;-1.20;99.90
19952;DHT22;10137;49.406;19.484;2023-02-08T14:35:40;-1.30;99.90
19952;DHT22;10137;49.406;19.484;2023-02-08T14:41:45;-1.40;99.90
19952;DHT22;10137;49.406;19.484;2023-02-08T14:50:38;-1.60;99.90
19952;DHT22;10137;49.406;19.484;2023-02-08T14:53:26;-1.60;99.90
19952;DHT22;10137;49.406;19.484;2023-02-08T14:56:01;-1.70;99.90
19952;DHT22;10137;49.406;19.484;2023-02-08T14:58:33;-1.70;99.90
19952;DHT22;10137;49.406;19.484;2023-02-08T15:01:03;-1.70;99.90
19952;DHT22;10137;49.406;19.484;2023-02-08T15:03:33;-1.70;99.90
19952;DHT22;10137;49.406;19.484;2023-02-08T15:06:29;-1.80;99.90
19952;DHT22;10137;49.406;19.484;2023-02-08T15:09:00;-1.80;99.90
19952;DHT22;10137;49.406;19.484;2023-02-08T15:11:30;-1.90;99.90
19952;DHT22;10137;49.406;19.484;2023-02-08T15:14:00;-2.00;99.90
19952;DHT22;10137;49.406;19.484;2023-02-08T15:16:34;-1.90;99.90
19952;DHT22;10137;49.406;19.484;2023-02-08T15:19:02;-2.00;99.90
19952;DHT22;10137;49.406;19.484;2023-02-08T15:21:31;-2.00;99.90
19952;DHT22;10137;49.406;19.484;2023-02-08T15:24:10;-2.10;99.90
19952;DHT22;10137;49.406;19.484;2023-02-08T15:26:43;-2.20;99.90
19952;DHT22;10137;49.406;19.484;2023-02-08T15:29:20;-2.30;99.90
19952;DHT22;10137;49.406;19.484;2023-02-08T15:31:47;-2.40;99.90
19952;DHT22;10137;49.406;19.484;2023-02-08T15:34:15;-2.50;99.90
19952;DHT22;10137;49.406;19.484;2023-02-08T15:36:47;-2.50;99.90
19952;DHT22;10137;49.406;19.484;2023-02-08T15:39:27;-2.60;99.90
19952;DHT22;10137;49.406;19.484;2023-02-08T15:41:57;-2.60;99.90
19952;DHT22;10137;49.406;19.484;2023-02-08T15:44:27;-2.70;99.90
19952;DHT22;10137;49.406;19.484;2023-02-08T15:46:57;-2.80;99.90
19952;DHT22;10137;49.406;19.484;2023-02-08T15:49:31;-3.20;99.90
19952;DHT22;10137;49.406;19.484;2023-02-08T15:51:58;-3.60;99.90
19952;DHT22;10137;49.406;19.484;2023-02-08T15:54:26;-4.10;99.90
19952;DHT22;10137;49.406;19.484;2023-02-08T15:56:55;-4.10;99.90
19952;DHT22;10137;49.406;19.484;2023-02-08T15:59:26;-4.00;99.90
19952;DHT22;10137;49.406;19.484;2023-02-08T16:01:57;-4.10;99.90
19952;DHT22;10137;49.406;19.484;2023-02-08T16:04:25;-4.10;99.90